Time;durP1;ratioP1;P1;durP2;ratioP2;P2;SDS_P1;SDS_P2;PMS_P1;PMS_P2;Temp;Humidity;BMP_temperature;BMP_pressure;BME280_temperature;BME280_humidity;BME280_pressure;Samples;Min_cycle;Max_cycle;Signal;HPM_P1;HPM_P2
2021/11/18 03:45:54;;;;;;;12.45;7.53;;;9.30;94.00;;;;;;5540094;24;20050;-80
2021/11/18 03:48:24;;;;;;;13.07;8.52;;;9.20;94.20;;;;;;4823572;29;20046;-80
2021/11/18 03:50:51;;;;;;;17.05;8.38;;;9.30;94.10;;;;;;4843506;29;20348;-80
2021/11/18 03:53:17;;;;;;;9.80;6.90;;;9.30;94.10;;;;;;4835362;29;20034;-80
2021/11/18 03:55:43;;;;;;;11.57;7.35;;;9.30;94.00;;;;;;4838288;29;20049;-80
2021/11/18 03:58:09;;;;;;;10.05;7.30;;;9.30;94.00;;;;;;4839990;29;20343;-80
2021/11/18 04:00:38;;;;;;;11.10;7.05;;;9.30;93.90;;;;;;4838437;29;20054;-79
2021/11/18 04:03:05;;;;;;;15.68;7.10;;;9.30;93.70;;;;;;4853897;29;20030;-80
2021/11/18 04:05:38;;;;;;;11.93;8.25;;;9.40;93.80;;;;;;4842735;29;20030;-80
2021/11/18 04:08:05;;;;;;;8.98;6.75;;;9.40;93.80;;;;;;4823700;29;20112;-79
2021/11/18 04:10:33;;;;;;;11.48;7.40;;;9.50;93.60;;;;;;4853738;29;20059;-80
2021/11/18 04:13:00;;;;;;;11.32;7.53;;;9.50;93.40;;;;;;4818747;29;20049;-81
2021/11/18 04:15:27;;;;;;;8.55;6.93;;;9.40;93.50;;;;;;4832959;29;20069;-80
2021/11/18 04:17:56;;;;;;;10.50;7.47;;;9.40;93.50;;;;;;4866890;29;20041;-80
2021/11/18 04:20:26;;;;;;;8.52;7.28;;;9.40;93.40;;;;;;4851544;29;20026;-81
2021/11/18 04:22:54;;;;;;;12.07;8.30;;;9.40;93.40;;;;;;4853264;29;20070;-81
2021/11/18 04:25:24;;;;;;;10.45;7.75;;;9.40;93.40;;;;;;4833094;29;20030;-80
2021/11/18 04:27:51;;;;;;;10.60;7.97;;;9.50;93.30;;;;;;4845201;29;20073;-82
2021/11/18 04:30:21;;;;;;;11.98;8.32;;;9.50;93.30;;;;;;4836279;29;20034;-80
2021/11/18 04:33:07;;;;;;;10.80;7.85;;;9.40;93.30;;;;;;4853420;29;20038;-81
2021/11/18 04:35:33;;;;;;;10.93;7.20;;;9.40;93.30;;;;;;4852736;29;20030;-81
2021/11/18 04:37:59;;;;;;;11.87;8.73;;;9.40;93.40;;;;;;4862455;29;20690;-81
2021/11/18 04:40:32;;;;;;;12.95;8.70;;;9.40;93.60;;;;;;4833922;29;20275;-81
2021/11/18 04:43:00;;;;;;;11.07;8.80;;;9.40;93.70;;;;;;4852998;29;20038;-81
2021/11/18 04:45:26;;;;;;;10.93;8.52;;;9.30;93.80;;;;;;4848424;29;20030;-81
2021/11/18 04:47:56;;;;;;;12.52;8.98;;;9.30;94.10;;;;;;4834582;29;20234;-80
2021/11/18 04:50:23;;;;;;;11.85;8.82;;;9.30;94.10;;;;;;4834631;29;20061;-81
2021/11/18 04:52:50;;;;;;;14.00;9.52;;;9.30;94.20;;;;;;4834586;29;20268;-80
2021/11/18 04:55:23;;;;;;;12.43;8.57;;;9.30;94.10;;;;;;4834034;29;20034;-80
2021/11/18 04:57:49;;;;;;;14.10;9.27;;;9.30;94.20;;;;;;4819354;29;20329;-81
2021/11/18 05:00:25;;;;;;;12.77;9.52;;;9.30;94.10;;;;;;4819483;29;20035;-81
2021/11/18 05:02:51;;;;;;;15.68;9.25;;;9.30;94.20;;;;;;4831075;29;20038;-80
2021/11/18 05:05:20;;;;;;;12.20;8.43;;;9.30;94.20;;;;;;4834754;29;20030;-82
2021/11/18 05:07:46;;;;;;;12.40;9.35;;;9.30;94.20;;;;;;4834296;29;20102;-81
2021/11/18 05:10:14;;;;;;;12.63;8.82;;;9.30;94.10;;;;;;4834553;29;20065;-82
2021/11/18 05:12:40;;;;;;;13.25;8.95;;;9.30;94.10;;;;;;4834186;29;20101;-80
2021/11/18 05:15:14;;;;;;;16.70;10.52;;;9.30;94.00;;;;;;4834188;29;20053;-80
2021/11/18 05:17:41;;;;;;;12.20;9.40;;;9.20;94.00;;;;;;4833917;29;20091;-81
2021/11/18 05:20:08;;;;;;;11.57;9.30;;;9.20;94.10;;;;;;4834411;29;20143;-81
2021/11/18 05:22:34;;;;;;;13.55;9.15;;;9.20;94.10;;;;;;4833926;29;20030;-81
2021/11/18 05:25:00;;;;;;;12.77;9.40;;;9.20;94.00;;;;;;4834160;29;20082;-81
2021/11/18 05:27:25;;;;;;;11.68;9.23;;;9.30;94.00;;;;;;4834027;29;20030;-81
2021/11/18 05:29:52;;;;;;;12.32;9.00;;;9.40;94.00;;;;;;4818740;29;20034;-81
2021/11/18 05:32:18;;;;;;;13.02;9.75;;;9.30;93.90;;;;;;4833985;29;20030;-81
2021/11/18 05:34:58;;;;;;;14.35;10.50;;;9.30;93.90;;;;;;4823225;29;20330;-81
2021/11/18 05:37:25;;;;;;;12.88;10.57;;;9.40;94.20;;;;;;4832574;29;20035;-81
2021/11/18 05:39:51;;;;;;;15.93;10.20;;;9.40;94.20;;;;;;4833727;29;20038;-81
2021/11/18 05:42:17;;;;;;;14.88;10.30;;;9.30;94.20;;;;;;4834878;29;20296;-81
2021/11/18 05:44:43;;;;;;;15.52;10.35;;;9.40;94.30;;;;;;4831394;29;20038;-81
2021/11/18 05:47:09;;;;;;;15.23;10.77;;;9.30;94.40;;;;;;4813657;29;20046;-81
2021/11/18 05:49:36;;;;;;;18.10;11.48;;;9.30;94.60;;;;;;4829141;29;20043;-81
2021/11/18 05:52:14;;;;;;;19.73;10.98;;;9.30;94.80;;;;;;4817241;29;20034;-81
2021/11/18 05:54:41;;;;;;;16.05;10.77;;;9.40;95.10;;;;;;4814915;29;20254;-81
2021/11/18 05:57:07;;;;;;;14.85;10.32;;;9.30;95.20;;;;;;4815755;29;20034;-81
2021/11/18 05:59:33;;;;;;;19.95;11.52;;;9.30;95.40;;;;;;4832229;29;20037;-81
2021/11/18 06:02:00;;;;;;;17.83;12.07;;;9.30;95.60;;;;;;4832369;29;20058;-81
2021/11/18 06:04:27;;;;;;;17.52;11.88;;;9.30;95.70;;;;;;4833372;29;20355;-81
2021/11/18 06:07:01;;;;;;;17.80;11.38;;;9.30;95.70;;;;;;4834571;29;20029;-81
2021/11/18 06:09:27;;;;;;;16.30;11.50;;;9.20;95.80;;;;;;4841312;29;20030;-81
2021/11/18 06:11:53;;;;;;;15.80;11.80;;;9.20;95.90;;;;;;4833245;29;20079;-81
2021/11/18 06:14:20;;;;;;;18.40;12.10;;;9.20;96.10;;;;;;4817397;29;20063;-81
2021/11/18 06:16:49;;;;;;;16.35;11.43;;;9.20;96.10;;;;;;4803492;29;20040;-81
2021/11/18 06:19:15;;;;;;;16.67;10.75;;;9.10;95.90;;;;;;4833028;29;20050;-81
2021/11/18 06:21:44;;;;;;;14.50;10.65;;;9.20;95.90;;;;;;4832999;29;20018;-81
2021/11/18 06:24:12;;;;;;;14.90;11.77;;;9.20;96.00;;;;;;4815141;29;20034;-81
2021/11/18 06:26:46;;;;;;;16.40;11.23;;;9.20;95.90;;;;;;4833357;29;20034;-80
2021/11/18 06:29:22;;;;;;;17.65;11.30;;;9.20;95.70;;;;;;4804380;29;20245;-80
2021/11/18 06:31:52;;;;;;;17.50;11.93;;;9.20;95.90;;;;;;4832856;29;20032;-82
2021/11/18 06:34:19;;;;;;;18.80;13.48;;;9.20;95.90;;;;;;4833053;29;20440;-80
2021/11/18 06:36:46;;;;;;;16.33;11.30;;;9.30;95.80;;;;;;4831613;29;20038;-80
2021/11/18 06:39:13;;;;;;;19.80;11.73;;;9.30;95.70;;;;;;4832470;29;20099;-80
2021/11/18 06:41:40;;;;;;;24.13;13.25;;;9.20;95.80;;;;;;4800019;29;20023;-82
2021/11/18 06:44:07;;;;;;;16.93;11.87;;;9.20;95.80;;;;;;4827582;29;20222;-81
2021/11/18 06:46:36;;;;;;;21.80;12.90;;;9.20;95.80;;;;;;4819604;29;20339;-80
2021/11/18 06:49:04;;;;;;;18.15;11.85;;;9.30;95.90;;;;;;4818363;29;20115;-81
2021/11/18 06:51:30;;;;;;;16.67;12.07;;;9.20;95.80;;;;;;4817074;29;20092;-80
2021/11/18 06:53:59;;;;;;;16.40;12.52;;;9.30;95.70;;;;;;4833347;29;20034;-81
2021/11/18 06:56:29;;;;;;;14.98;11.73;;;9.30;95.70;;;;;;4833686;29;20389;-81
2021/11/18 06:58:57;;;;;;;16.58;11.93;;;9.20;95.70;;;;;;4813196;29;20031;-81
2021/11/18 07:01:28;;;;;;;17.50;11.77;;;9.20;95.60;;;;;;4832027;29;20053;-81
2021/11/18 07:03:55;;;;;;;18.65;11.02;;;9.20;95.50;;;;;;4848584;29;20321;-81
2021/11/18 07:06:23;;;;;;;16.23;11.15;;;9.20;95.40;;;;;;4830034;29;20056;-81
2021/11/18 07:08:50;;;;;;;20.20;12.68;;;9.30;95.30;;;;;;4844963;29;20030;-81
2021/11/18 07:11:19;;;;;;;15.68;11.25;;;9.20;95.20;;;;;;4809593;29;20322;-81
2021/11/18 07:13:47;;;;;;;16.85;10.88;;;9.20;95.20;;;;;;4830771;29;20030;-81
2021/11/18 07:16:15;;;;;;;;;;;9.30;95.20;;;;;;4832204;29;20034;-82
2021/11/18 07:18:43;;;;;;;15.10;11.00;;;9.20;95.30;;;;;;4834414;29;19923;-80
2021/11/18 07:21:10;;;;;;;15.15;11.10;;;9.20;95.20;;;;;;4834502;29;20135;-80
2021/11/18 07:23:38;;;;;;;15.70;11.13;;;9.20;95.10;;;;;;4834761;29;20081;-82
2021/11/18 07:26:05;;;;;;;13.95;10.43;;;9.30;95.20;;;;;;4848473;29;20031;-81
2021/11/18 07:28:35;;;;;;;16.27;11.20;;;9.30;95.10;;;;;;4835712;29;20401;-81
2021/11/18 07:31:03;;;;;;;14.25;10.70;;;9.40;95.20;;;;;;4819424;29;20034;-81
2021/11/18 07:33:35;;;;;;;15.57;10.88;;;9.50;94.80;;;;;;4819786;29;20102;-81
2021/11/18 07:36:02;;;;;;;;;;;9.50;94.70;;;;;;4817677;29;20038;-80
2021/11/18 07:38:31;;;;;;;14.90;10.30;;;9.50;94.50;;;;;;4834223;29;19960;-80
2021/11/18 07:41:01;;;;;;;15.73;10.38;;;9.60;94.60;;;;;;4817388;29;20026;-81
2021/11/18 07:43:32;;;;;;;16.58;12.15;;;9.60;94.60;;;;;;4846773;29;20034;-81
2021/11/18 07:46:15;;;;;;;15.82;10.73;;;9.70;94.50;;;;;;4830434;29;20286;-81
2021/11/18 07:48:47;;;;;;;17.27;10.23;;;9.80;94.20;;;;;;4821359;29;20031;-81
2021/11/18 07:51:20;;;;;;;18.70;11.55;;;9.90;94.10;;;;;;4833875;29;20037;-82
2021/11/18 07:53:46;;;;;;;17.55;10.75;;;9.90;93.90;;;;;;4828954;29;20034;-81
2021/11/18 07:56:14;;;;;;;14.55;10.20;;;10.00;93.90;;;;;;4833878;29;20046;-81
2021/11/18 07:58:40;;;;;;;16.95;10.98;;;10.10;93.60;;;;;;4833216;29;20346;-81
2021/11/18 08:01:07;;;;;;;16.27;10.60;;;10.20;93.40;;;;;;4833684;29;20040;-82
2021/11/18 08:03:35;;;;;;;19.33;11.82;;;10.20;93.00;;;;;;4848725;29;20207;-81
2021/11/18 08:06:15;;;;;;;16.92;11.18;;;10.30;92.80;;;;;;4827449;29;20062;-80
2021/11/18 08:08:47;;;;;;;23.88;11.60;;;10.30;92.70;;;;;;4819031;29;20026;-81
2021/11/18 08:11:22;;;;;;;19.52;11.05;;;10.40;92.60;;;;;;4804770;29;20098;-79
2021/11/18 08:13:49;;;;;;;15.73;10.55;;;10.40;92.50;;;;;;4833665;29;20030;-81
2021/11/18 08:16:15;;;;;;;19.42;11.75;;;10.50;92.40;;;;;;4833144;29;20034;-81
2021/11/18 08:18:46;;;;;;;15.75;9.50;;;10.50;92.20;;;;;;4847667;29;20039;-81
2021/11/18 08:21:13;;;;;;;12.70;9.02;;;10.60;92.20;;;;;;4815204;29;20105;-80
2021/11/18 08:23:40;;;;;;;14.45;9.00;;;10.60;91.90;;;;;;4847377;29;20030;-80
2021/11/18 08:26:10;;;;;;;13.18;7.57;;;10.60;91.50;;;;;;4832381;29;20221;-81
2021/11/18 08:28:36;;;;;;;13.00;8.95;;;10.50;91.40;;;;;;4832804;29;20330;-81
2021/11/18 08:31:02;;;;;;;12.23;8.23;;;10.50;91.40;;;;;;4817588;29;20027;-82
2021/11/18 08:33:34;;;;;;;10.52;7.72;;;10.60;91.60;;;;;;4832589;29;20219;-82
2021/11/18 08:36:00;;;;;;;9.90;7.50;;;10.70;91.20;;;;;;4833414;29;20101;-81
2021/11/18 08:38:26;;;;;;;11.68;8.13;;;10.60;90.90;;;;;;4832422;29;20050;-81
2021/11/18 08:41:11;;;;;;;10.18;7.90;;;10.70;91.20;;;;;;4833890;29;20030;-81
2021/11/18 08:43:42;;;;;;;13.02;8.88;;;10.80;90.70;;;;;;4833639;29;20109;-80
2021/11/18 08:46:16;;;;;;;12.80;9.13;;;10.90;90.80;;;;;;4833769;29;20042;-82
2021/11/18 08:48:44;;;;;;;14.00;9.27;;;10.90;90.70;;;;;;4849251;29;20066;-81
2021/11/18 08:51:12;;;;;;;17.48;9.65;;;11.00;90.90;;;;;;4849048;29;20034;-81
2021/11/18 08:53:41;;;;;;;17.48;9.93;;;11.10;90.80;;;;;;4833691;29;20057;-81
2021/11/18 08:56:08;;;;;;;11.13;8.65;;;11.30;90.40;;;;;;4833837;29;20037;-82
2021/11/18 08:58:39;;;;;;;10.88;8.73;;;11.40;90.30;;;;;;4827478;29;20295;-81
2021/11/18 09:01:19;;;;;;;16.00;9.38;;;11.50;89.60;;;;;;4833729;29;20039;-81
2021/11/18 09:03:45;;;;;;;13.07;8.45;;;11.40;89.00;;;;;;4848956;29;20050;-81
2021/11/18 09:06:16;;;;;;;15.48;8.98;;;11.50;88.80;;;;;;4848944;29;20037;-81
2021/11/18 09:08:48;;;;;;;11.63;8.15;;;11.60;88.10;;;;;;4831128;29;20038;-81
2021/11/18 09:11:15;;;;;;;11.98;8.32;;;11.70;88.90;;;;;;4842609;29;20061;-81
2021/11/18 09:13:49;;;;;;;11.30;8.32;;;11.90;88.50;;;;;;4832794;29;20038;-81
2021/11/18 09:16:20;;;;;;;15.45;9.02;;;12.00;85.80;;;;;;4818009;29;20071;-82
2021/11/18 09:19:02;;;;;;;11.05;8.10;;;11.90;85.50;;;;;;4833455;29;20038;-81
2021/11/18 09:21:31;;;;;;;23.63;8.80;;;11.80;85.90;;;;;;4832928;29;20038;-81
2021/11/18 09:24:03;;;;;;;13.13;8.93;;;11.90;86.30;;;;;;4833463;29;20046;-82
2021/11/18 09:26:31;;;;;;;11.80;8.23;;;11.90;85.50;;;;;;4832975;29;20034;-81
2021/11/18 09:28:59;;;;;;;12.15;8.93;;;11.90;86.10;;;;;;4834863;29;20042;-81
2021/11/18 09:31:45;;;;;;;11.50;7.68;;;11.90;84.90;;;;;;4813629;29;20038;-81
2021/11/18 09:34:12;;;;;;;11.50;8.07;;;12.00;86.20;;;;;;4813664;29;20069;-81
2021/11/18 09:36:38;;;;;;;12.95;8.30;;;12.00;85.10;;;;;;4834982;29;20047;-81
2021/11/18 09:39:06;;;;;;;16.10;8.63;;;12.00;84.50;;;;;;4828658;29;20211;-81
2021/11/18 09:41:53;;;;;;;10.80;7.32;;;12.00;84.80;;;;;;4797819;29;20039;-81
2021/11/18 09:45:12;;;;;;;10.93;8.05;;;11.80;82.60;;;;;;4830852;29;20095;-81
2021/11/18 09:48:03;;;;;;;11.18;7.88;;;11.80;83.60;;;;;;4827342;29;20066;-81
2021/11/18 09:50:42;;;;;;;11.90;8.02;;;11.50;84.10;;;;;;4827940;29;20039;-81
2021/11/18 09:53:56;;;;;;;12.95;8.43;;;11.40;85.00;;;;;;4826024;29;20222;-81
2021/11/18 09:56:44;;;;;;;11.52;8.65;;;11.40;85.70;;;;;;4838263;29;20119;-81
2021/11/18 09:59:21;;;;;;;13.82;8.98;;;11.40;86.40;;;;;;4833658;29;20386;-81
2021/11/18 10:02:28;;;;;;;13.55;8.35;;;11.50;86.20;;;;;;4828596;29;20039;-81
2021/11/18 10:05:07;;;;;;;12.18;9.43;;;11.50;86.10;;;;;;4809038;29;20031;-79
2021/11/18 10:07:42;;;;;;;13.02;8.30;;;11.50;85.90;;;;;;4828823;29;20087;-79
2021/11/18 10:10:20;;;;;;;11.05;7.95;;;11.30;85.00;;;;;;4820570;29;20034;-79
2021/11/18 10:12:55;;;;;;;10.43;8.07;;;11.40;86.40;;;;;;4832561;29;20369;-79
2021/11/18 10:15:25;;;;;;;17.40;8.90;;;11.60;86.60;;;;;;4832725;29;20082;-80
2021/11/18 10:17:59;;;;;;;13.02;8.93;;;11.80;85.60;;;;;;4832317;29;20079;-79
2021/11/18 10:20:35;;;;;;;11.82;8.88;;;11.70;84.00;;;;;;4832529;29;20105;-79
2021/11/18 10:23:11;;;;;;;15.57;8.73;;;11.70;84.70;;;;;;4845209;29;20342;-79
2021/11/18 10:25:52;;;;;;;11.25;8.60;;;11.80;85.00;;;;;;4831927;29;20334;-79
2021/11/18 10:28:21;;;;;;;11.95;8.68;;;11.80;84.70;;;;;;4834941;29;20557;-81
2021/11/18 10:31:17;;;;;;;15.45;7.88;;;12.00;84.30;;;;;;4832220;29;20334;-81
2021/11/18 10:33:54;;;;;;;13.50;8.63;;;12.10;83.50;;;;;;4827482;29;20038;-79
2021/11/18 10:36:47;;;;;;;10.73;8.35;;;12.00;83.10;;;;;;4832151;29;20109;-81
2021/11/18 10:39:36;;;;;;;10.50;7.88;;;12.00;83.10;;;;;;4831610;29;20383;-81
2021/11/18 10:42:31;;;;;;;13.18;8.13;;;12.10;83.00;;;;;;4812420;29;20065;-81
2021/11/18 10:45:29;;;;;;;12.88;8.68;;;12.20;83.30;;;;;;4849162;29;20067;-80
2021/11/18 10:48:07;;;;;;;9.75;7.57;;;12.20;83.40;;;;;;4834152;29;20305;-80
2021/11/18 10:50:32;;;;;;;11.27;8.35;;;12.30;82.50;;;;;;4834370;29;20046;-80
2021/11/18 10:53:28;;;;;;;14.95;8.23;;;12.30;82.40;;;;;;4849128;29;20389;-80
2021/11/18 10:55:59;;;;;;;9.10;7.22;;;12.20;82.20;;;;;;4832536;29;20045;-79
2021/11/18 10:58:24;;;;;;;11.68;8.48;;;12.00;82.00;;;;;;4845986;29;20046;-79
2021/11/18 11:00:58;;;;;;;10.02;7.72;;;12.00;82.80;;;;;;4845358;29;20034;-80
2021/11/18 11:03:34;;;;;;;12.63;7.88;;;12.00;83.50;;;;;;4843499;29;20101;-80
2021/11/18 11:06:14;;;;;;;13.82;7.70;;;12.10;83.20;;;;;;4832305;29;20034;-80
2021/11/18 11:08:44;;;;;;;13.52;8.07;;;12.10;82.50;;;;;;4838645;29;20034;-80
2021/11/18 11:11:23;;;;;;;11.05;7.60;;;12.00;82.80;;;;;;4842871;29;20038;-80
2021/11/18 11:14:09;;;;;;;12.07;7.97;;;12.00;82.50;;;;;;4853026;29;20030;-79
2021/11/18 11:16:52;;;;;;;11.30;7.57;;;11.80;83.10;;;;;;4794364;30;20165;-80
2021/11/18 11:19:49;;;;;;;13.10;9.10;;;12.00;84.20;;;;;;4794809;30;20084;-80
2021/11/18 11:22:48;;;;;;;11.38;8.07;;;12.20;83.30;;;;;;4793653;30;20140;-80
2021/11/18 11:25:59;;;;;;;13.35;7.93;;;12.30;83.00;;;;;;4794718;30;20042;-80
2021/11/18 11:28:49;;;;;;;10.90;7.90;;;12.40;82.60;;;;;;4800552;29;20110;-81
2021/11/18 11:31:24;;;;;;;13.02;8.15;;;12.40;81.40;;;;;;4797210;29;20347;-80
2021/11/18 11:34:15;;;;;;;10.77;7.70;;;12.30;82.60;;;;;;4812157;29;20043;-80
2021/11/18 11:37:07;;;;;;;12.57;8.23;;;12.30;82.40;;;;;;4796894;29;20034;-80
2021/11/18 11:39:50;;;;;;;10.65;7.90;;;12.30;83.10;;;;;;4797361;29;20113;-80
2021/11/18 11:42:57;;;;;;;13.80;8.02;;;12.40;82.30;;;;;;4812049;29;20356;-80
2021/11/18 11:45:25;;;;;;;14.15;7.80;;;12.30;81.90;;;;;;4799837;29;20070;-80
2021/11/18 11:48:21;;;;;;;11.65;8.00;;;12.30;83.00;;;;;;4797191;29;20039;-80
2021/11/18 11:51:26;;;;;;;11.40;8.52;;;12.20;83.20;;;;;;4797461;29;20043;-80
2021/11/18 11:54:28;;;;;;;11.93;7.93;;;12.00;82.90;;;;;;4817620;29;20421;-81
2021/11/18 11:57:16;;;;;;;14.52;8.27;;;12.00;83.40;;;;;;4849210;29;20104;-80
2021/11/18 11:59:46;;;;;;;12.75;8.07;;;11.80;83.80;;;;;;4834170;29;20029;-80
2021/11/18 12:02:36;;;;;;;11.77;8.20;;;11.70;84.80;;;;;;4834067;29;20041;-81
2021/11/18 12:05:06;;;;;;;13.05;8.45;;;11.90;85.00;;;;;;4836063;29;20054;-80
2021/11/18 12:07:41;;;;;;;11.57;8.32;;;12.00;85.60;;;;;;4834185;29;20052;-80
2021/11/18 12:10:32;;;;;;;10.82;7.95;;;12.00;84.10;;;;;;4834749;29;20038;-80
2021/11/18 12:13:10;;;;;;;11.02;8.13;;;11.90;84.30;;;;;;4834509;29;20109;-80
2021/11/18 12:15:46;;;;;;;15.60;7.35;;;11.90;84.10;;;;;;4834693;29;20089;-80
2021/11/18 12:18:24;;;;;;;12.68;8.38;;;11.80;84.60;;;;;;4837914;29;20038;-80
2021/11/18 12:20:51;;;;;;;10.27;8.32;;;11.90;84.00;;;;;;4835551;29;20093;-80
2021/11/18 12:23:20;;;;;;;10.40;7.88;;;11.80;84.60;;;;;;4834506;29;20106;-80
2021/11/18 12:25:48;;;;;;;15.75;7.93;;;11.80;85.00;;;;;;4834981;29;20075;-80
2021/11/18 12:28:18;;;;;;;12.27;8.02;;;11.80;84.70;;;;;;4838504;29;20042;-80
2021/11/18 12:30:47;;;;;;;12.48;8.40;;;11.80;84.70;;;;;;4834613;29;20086;-80
2021/11/18 12:33:18;;;;;;;15.77;7.72;;;11.80;84.60;;;;;;4833995;29;20234;-80
2021/11/18 12:35:56;;;;;;;15.25;6.32;;;11.90;84.90;;;;;;4834264;29;20200;-80
2021/11/18 12:38:43;;;;;;;8.80;6.13;;;11.90;84.10;;;;;;4833934;29;20122;-80
2021/11/18 12:41:41;;;;;;;10.40;6.85;;;11.90;83.60;;;;;;4834058;29;20055;-80
2021/11/18 12:44:31;;;;;;;7.53;4.60;;;11.90;84.00;;;;;;4834101;29;20345;-80
2021/11/18 12:47:17;;;;;;;12.32;4.45;;;11.90;81.60;;;;;;4833830;29;20082;-80
2021/11/18 12:49:47;;;;;;;9.43;5.57;;;11.90;82.20;;;;;;4833842;29;20054;-80
2021/11/18 12:52:18;;;;;;;5.45;3.58;;;12.10;82.80;;;;;;4834021;29;20102;-80
2021/11/18 12:55:05;;;;;;;9.75;3.42;;;12.10;80.80;;;;;;4849212;29;20042;-81
2021/11/18 12:57:41;;;;;;;7.30;4.90;;;12.10;79.10;;;;;;4833851;29;20357;-81
2021/11/18 13:00:16;;;;;;;8.68;3.38;;;12.00;79.00;;;;;;4833855;29;20049;-81
2021/11/18 13:02:45;;;;;;;5.25;3.17;;;12.00;79.70;;;;;;4801327;29;20203;-81
2021/11/18 13:05:10;;;;;;;5.35;3.50;;;12.00;79.50;;;;;;4849024;29;20386;-81
2021/11/18 13:07:54;;;;;;;6.28;3.58;;;12.00;79.30;;;;;;4833848;29;20030;-81
2021/11/18 13:10:23;;;;;;;10.25;4.03;;;12.00;79.00;;;;;;4833145;29;20030;-81
2021/11/18 13:13:04;;;;;;;5.90;3.85;;;12.10;79.10;;;;;;4833706;29;20092;-81
2021/11/18 13:15:40;;;;;;;13.55;4.20;;;12.10;79.00;;;;;;4833450;29;20222;-81
2021/11/18 13:18:25;;;;;;;10.93;4.13;;;12.00;79.30;;;;;;4833486;29;20045;-81
2021/11/18 13:21:41;;;;;;;7.75;4.10;;;12.00;79.30;;;;;;4848602;29;20098;-81
2021/11/18 13:24:07;;;;;;;6.47;4.70;;;12.00;79.60;;;;;;4833284;29;20038;-81
2021/11/18 13:26:45;;;;;;;7.25;4.55;;;12.00;80.00;;;;;;4833689;29;20043;-81
2021/11/18 13:29:10;;;;;;;9.32;4.85;;;12.10;80.50;;;;;;4844253;29;20030;-81
2021/11/18 13:31:43;;;;;;;6.47;3.88;;;12.20;80.20;;;;;;4833039;29;20041;-80
2021/11/18 13:34:30;;;;;;;6.28;4.03;;;12.20;79.60;;;;;;4833122;29;20344;-81
2021/11/18 13:37:14;;;;;;;6.53;3.83;;;12.10;79.30;;;;;;4833293;29;20087;-81
2021/11/18 13:39:52;;;;;;;6.57;3.53;;;12.00;79.30;;;;;;4833076;29;20027;-81
2021/11/18 13:42:27;;;;;;;7.15;3.53;;;11.90;79.70;;;;;;4832999;29;20034;-81
2021/11/18 13:45:08;;;;;;;4.75;3.75;;;11.80;80.20;;;;;;4833110;29;20097;-81
2021/11/18 13:47:37;;;;;;;8.80;5.13;;;11.90;80.80;;;;;;4832905;29;20062;-81
2021/11/18 13:50:22;;;;;;;11.68;5.88;;;11.90;81.10;;;;;;4833017;29;20041;-81
2021/11/18 13:52:59;;;;;;;8.90;6.10;;;11.80;81.20;;;;;;4832895;29;20322;-81
2021/11/18 13:55:30;;;;;;;13.52;5.88;;;11.80;81.90;;;;;;4848236;29;20035;-81
2021/11/18 13:57:58;;;;;;;10.02;6.05;;;11.80;82.30;;;;;;4833994;29;20038;-81
2021/11/18 14:00:31;;;;;;;11.25;5.93;;;11.80;82.30;;;;;;4832827;29;20060;-81
2021/11/18 14:03:24;;;;;;;9.48;6.90;;;11.80;82.50;;;;;;4835646;29;20106;-81
2021/11/18 14:05:54;;;;;;;11.57;7.43;;;11.80;82.20;;;;;;4816888;29;20242;-81
2021/11/18 14:08:34;;;;;;;10.85;7.80;;;11.70;82.50;;;;;;4832656;29;20058;-81
2021/11/18 14:11:12;;;;;;;10.05;7.07;;;11.60;82.80;;;;;;4833875;29;20047;-81
2021/11/18 14:13:43;;;;;;;13.10;7.32;;;11.60;83.30;;;;;;4832851;29;20406;-81
2021/11/18 14:16:24;;;;;;;9.52;7.05;;;11.60;83.10;;;;;;4832535;29;20030;-81
2021/11/18 14:19:12;;;;;;;9.57;6.80;;;11.50;82.60;;;;;;4832141;29;20269;-81
2021/11/18 14:22:07;;;;;;;9.05;6.72;;;11.40;82.50;;;;;;4828716;29;20042;-81
2021/11/18 14:24:45;;;;;;;14.73;7.20;;;11.50;82.80;;;;;;4846849;29;20033;-81
2021/11/18 14:27:12;;;;;;;15.73;6.43;;;11.40;82.90;;;;;;4831496;29;20038;-81
2021/11/18 14:29:53;;;;;;;9.38;6.53;;;11.40;82.60;;;;;;4830075;29;20030;-81
2021/11/18 14:32:29;;;;;;;9.98;6.32;;;11.40;82.50;;;;;;4828781;29;20323;-81
2021/11/18 14:35:04;;;;;;;12.75;6.50;;;11.50;82.60;;;;;;4830607;29;20037;-81
2021/11/18 14:37:41;;;;;;;10.73;6.40;;;11.50;82.50;;;;;;4826167;29;20038;-81
2021/11/18 14:40:24;;;;;;;10.68;5.75;;;11.50;82.40;;;;;;4841798;29;20046;-81
2021/11/18 14:43:09;;;;;;;8.98;5.93;;;11.50;82.40;;;;;;4830738;29;20065;-81
2021/11/18 14:45:38;;;;;;;11.38;6.90;;;11.50;81.90;;;;;;4826519;29;20417;-81
2021/11/18 14:48:23;;;;;;;9.25;6.32;;;11.60;82.20;;;;;;4820325;29;20042;-81
2021/11/18 14:51:10;;;;;;;15.02;6.00;;;11.60;81.80;;;;;;4830089;29;20038;-82
2021/11/18 14:53:54;;;;;;;9.57;5.60;;;11.50;80.80;;;;;;4846495;29;20026;-81
2021/11/18 14:56:22;;;;;;;7.18;4.82;;;11.50;81.00;;;;;;4829371;29;20259;-81
2021/11/18 14:58:54;;;;;;;11.32;5.32;;;11.40;81.50;;;;;;4829461;29;20314;-81
2021/11/18 15:01:27;;;;;;;8.73;5.97;;;11.30;81.60;;;;;;4831263;29;20097;-81
2021/11/18 15:04:05;;;;;;;12.15;6.32;;;11.20;82.20;;;;;;4816006;29;20040;-81
2021/11/18 15:06:40;;;;;;;16.23;6.30;;;11.10;82.40;;;;;;4846347;29;20293;-81
2021/11/18 15:09:15;;;;;;;10.85;6.03;;;11.00;82.70;;;;;;4830099;29;20057;-81
2021/11/18 15:11:45;;;;;;;10.52;5.95;;;11.00;83.10;;;;;;4814981;29;20030;-81
2021/11/18 15:14:14;;;;;;;11.02;5.82;;;10.90;82.70;;;;;;4836699;29;20105;-81
2021/11/18 15:16:41;;;;;;;12.13;6.30;;;10.90;83.00;;;;;;4831290;29;20035;-81
2021/11/18 15:19:07;;;;;;;11.88;5.75;;;10.90;83.40;;;;;;4830760;29;20455;-81
2021/11/18 15:21:34;;;;;;;9.75;6.32;;;10.90;83.40;;;;;;4829120;29;20083;-81
2021/11/18 15:24:03;;;;;;;13.13;5.93;;;10.80;84.20;;;;;;4829004;29;20038;-81
2021/11/18 15:26:35;;;;;;;13.88;7.15;;;10.80;84.10;;;;;;4831406;29;20034;-81
2021/11/18 15:29:03;;;;;;;12.68;6.95;;;10.80;84.60;;;;;;4844756;29;20286;-81
2021/11/18 15:31:31;;;;;;;15.32;7.70;;;10.70;85.10;;;;;;4845059;29;20030;-81
2021/11/18 15:33:57;;;;;;;10.63;6.72;;;10.70;85.10;;;;;;4827925;29;20034;-82
2021/11/18 15:36:22;;;;;;;10.15;6.45;;;10.60;85.10;;;;;;4828413;29;20038;-81
2021/11/18 15:38:53;;;;;;;18.20;7.75;;;10.60;85.70;;;;;;4815569;29;20038;-81
2021/11/18 15:41:26;;;;;;;19.80;7.90;;;10.60;85.90;;;;;;4834338;29;20102;-81
2021/11/18 15:43:53;;;;;;;12.40;7.72;;;10.50;86.40;;;;;;4833189;29;20034;-81
2021/11/18 15:46:20;;;;;;;13.40;8.05;;;10.50;86.40;;;;;;4828953;29;20163;-81
2021/11/18 15:48:48;;;;;;;15.35;8.73;;;10.50;86.60;;;;;;4831391;29;20039;-81
2021/11/18 15:51:17;;;;;;;13.73;8.40;;;10.50;87.00;;;;;;4832147;29;20215;-81
2021/11/18 15:53:44;;;;;;;11.65;7.93;;;10.40;87.20;;;;;;4832675;29;20058;-81
2021/11/18 15:56:12;;;;;;;;;;;10.40;87.30;;;;;;4832081;29;20091;-81
2021/11/18 15:58:40;;;;;;;12.13;7.93;;;10.40;87.50;;;;;;4832844;29;19924;-81
2021/11/18 16:01:11;;;;;;;13.93;8.05;;;10.30;87.50;;;;;;4847880;29;20026;-81
2021/11/18 16:03:39;;;;;;;16.50;7.85;;;10.30;87.70;;;;;;4849147;29;20034;-81
2021/11/18 16:06:05;;;;;;;11.38;7.43;;;10.20;87.60;;;;;;4831865;29;20038;-81
2021/11/18 16:08:31;;;;;;;13.88;7.75;;;10.10;87.70;;;;;;4831136;29;20101;-81
2021/11/18 16:11:12;;;;;;;13.48;7.80;;;10.10;87.80;;;;;;4832569;29;20246;-81
2021/11/18 16:13:41;;;;;;;14.55;7.50;;;10.10;87.90;;;;;;4834370;29;20368;-81
2021/11/18 16:16:09;;;;;;;14.30;8.38;;;10.00;88.00;;;;;;4833969;29;20074;-81
2021/11/18 16:18:36;;;;;;;11.43;7.45;;;10.00;88.10;;;;;;4834501;29;20121;-81
2021/11/18 16:21:08;;;;;;;10.98;7.13;;;10.10;88.20;;;;;;4834428;29;20106;-81
2021/11/18 16:23:38;;;;;;;16.48;7.55;;;10.00;88.10;;;;;;4834142;29;20038;-81
2021/11/18 16:26:05;;;;;;;12.38;7.43;;;10.00;88.30;;;;;;4829130;29;20338;-81
2021/11/18 16:28:30;;;;;;;14.73;6.80;;;10.00;88.30;;;;;;4835104;29;20346;-81
2021/11/18 16:30:57;;;;;;;13.25;8.48;;;9.90;88.40;;;;;;4818568;29;20037;-81
2021/11/18 16:33:23;;;;;;;13.85;7.97;;;9.90;88.70;;;;;;4836096;29;20030;-81
2021/11/18 16:35:51;;;;;;;14.05;8.18;;;9.80;89.20;;;;;;4829748;29;20381;-81
2021/11/18 16:38:21;;;;;;;16.50;8.95;;;9.80;89.50;;;;;;4834035;29;20045;-81
2021/11/18 16:40:51;;;;;;;13.50;8.02;;;9.70;90.00;;;;;;4834984;29;20337;-81
2021/11/18 16:43:17;;;;;;;13.13;7.93;;;9.70;90.10;;;;;;4833691;29;20034;-81
2021/11/18 16:45:45;;;;;;;16.50;7.68;;;9.70;90.20;;;;;;4835120;29;20188;-81
2021/11/18 16:48:15;;;;;;;12.30;7.65;;;9.70;90.20;;;;;;4828268;29;20387;-81
2021/11/18 16:50:47;;;;;;;13.93;6.53;;;9.70;90.20;;;;;;4833198;29;20322;-80
2021/11/18 16:53:14;;;;;;;15.48;7.20;;;9.80;90.20;;;;;;4834063;29;20065;-81
2021/11/18 16:55:46;;;;;;;15.73;8.20;;;9.80;90.10;;;;;;4834329;29;20043;-81
2021/11/18 16:58:13;;;;;;;14.00;7.95;;;9.80;90.10;;;;;;4833582;29;20039;-81